createdAt,value
2017-04-11T00:00:53.711Z,7.50
2017-04-11T00:01:55.884Z,7.50
2017-04-11T00:02:55.679Z,7.60
2017-04-11T00:03:58.594Z,7.70
2017-04-11T00:04:57.537Z,7.70
2017-04-11T00:05:59.159Z,7.80
2017-04-11T00:06:58.631Z,7.70
2017-04-11T00:07:57.434Z,7.80
2017-04-11T00:08:57.702Z,7.90
2017-04-11T00:09:59.271Z,7.90
2017-04-11T00:11:02.643Z,7.70
2017-04-11T00:12:06.032Z,7.70
2017-04-11T00:13:05.239Z,7.70
2017-04-11T00:14:04.491Z,7.70
2017-04-11T00:15:08.123Z,7.50
2017-04-11T00:16:09.457Z,7.40
2017-04-11T00:17:08.749Z,7.40
2017-04-11T00:18:11.750Z,7.30
2017-04-11T00:19:10.926Z,7.30
2017-04-11T00:20:13.183Z,7.20
2017-04-11T00:21:12.408Z,7.10
2017-04-11T00:22:15.226Z,7.10
2017-04-11T00:23:14.267Z,7.10
2017-04-11T00:24:12.915Z,7.10
2017-04-11T00:25:14.886Z,7.20
2017-04-11T00:26:13.620Z,7.40
2017-04-11T00:27:12.601Z,7.60
2017-04-11T00:28:14.622Z,7.70
2017-04-11T00:29:13.980Z,7.80
2017-04-11T00:30:12.856Z,7.70
2017-04-11T00:31:12.467Z,7.80
2017-04-11T00:32:11.777Z,7.80
2017-04-11T00:33:10.541Z,7.80
2017-04-11T00:34:09.666Z,7.70
2017-04-11T00:35:12.889Z,7.60
2017-04-11T00:36:12.118Z,7.50
2017-04-11T00:37:11.209Z,7.60
2017-04-11T00:38:11.802Z,7.60
2017-04-11T00:39:14.407Z,7.70
2017-04-11T00:40:13.477Z,7.60
2017-04-11T00:41:12.747Z,7.60
2017-04-11T00:42:13.790Z,7.70
2017-04-11T00:43:12.983Z,7.70
2017-04-11T00:44:12.141Z,7.70
2017-04-11T00:45:13.626Z,7.70
2017-04-11T00:46:12.679Z,7.60
2017-04-11T00:47:15.015Z,7.60
2017-04-11T00:48:14.263Z,7.60
2017-04-11T00:49:13.223Z,7.60
2017-04-11T00:50:12.943Z,7.60
2017-04-11T00:51:14.245Z,7.60
2017-04-11T00:52:13.149Z,7.60
2017-04-11T00:53:14.337Z,7.60
2017-04-11T00:54:16.237Z,7.50
2017-04-11T00:55:16.691Z,7.40
2017-04-11T00:56:18.924Z,7.40
2017-04-11T00:57:17.896Z,7.60
2017-04-11T00:58:20.652Z,7.60
2017-04-11T00:59:20.626Z,7.60
2017-04-11T01:00:19.874Z,7.60
2017-04-11T01:01:18.707Z,7.60
2017-04-11T01:02:17.083Z,7.60
2017-04-11T01:03:16.282Z,7.40
2017-04-11T01:04:15.454Z,7.30
2017-04-11T01:05:14.752Z,7.30
2017-04-11T01:06:13.600Z,7.30
2017-04-11T01:07:12.628Z,7.40
2017-04-11T01:08:11.940Z,7.40
2017-04-11T01:09:11.839Z,7.20
2017-04-11T01:10:11.267Z,7.20
2017-04-11T01:11:10.392Z,7.10
2017-04-11T01:12:09.598Z,7.00
2017-04-11T01:13:08.579Z,7.00
2017-04-11T01:14:07.368Z,7.10
2017-04-11T01:15:06.712Z,7.00
2017-04-11T01:16:09.452Z,6.90
2017-04-11T01:17:08.448Z,6.80
2017-04-11T01:18:12.614Z,6.80
2017-04-11T01:19:12.643Z,6.70
2017-04-11T01:20:11.444Z,6.70
2017-04-11T01:21:10.683Z,6.80
2017-04-11T01:22:09.514Z,6.80
2017-04-11T01:23:08.399Z,6.80
2017-04-11T01:24:07.848Z,6.80
2017-04-11T01:25:06.592Z,6.80
2017-04-11T01:26:05.442Z,6.80
2017-04-11T01:27:04.599Z,6.90
2017-04-11T01:28:03.404Z,7.00
2017-04-11T01:29:05.558Z,6.90
2017-04-11T01:30:07.964Z,7.00
2017-04-11T01:31:06.823Z,6.90
2017-04-11T01:32:05.583Z,6.80
2017-04-11T01:33:07.626Z,6.90
2017-04-11T01:34:06.427Z,7.00
2017-04-11T01:35:05.517Z,6.90
2017-04-11T01:36:05.486Z,6.90
2017-04-11T01:37:05.273Z,6.90
2017-04-11T01:38:05.855Z,6.90
2017-04-11T01:39:07.650Z,6.90
2017-04-11T01:40:10.619Z,6.70
2017-04-11T01:41:12.975Z,6.80
2017-04-11T01:42:13.221Z,6.80
2017-04-11T01:43:12.032Z,6.80
2017-04-11T01:44:10.979Z,6.70
2017-04-11T01:45:10.512Z,6.70
2017-04-11T01:46:09.413Z,6.70
2017-04-11T01:47:08.922Z,6.70
2017-04-11T01:48:08.086Z,6.80
2017-04-11T01:49:07.023Z,6.80
2017-04-11T01:50:09.882Z,6.80
2017-04-11T01:51:08.739Z,6.80
2017-04-11T01:52:07.823Z,6.80
2017-04-11T01:53:07.141Z,6.80
2017-04-11T01:54:06.483Z,6.80
2017-04-11T01:55:05.391Z,6.80
2017-04-11T01:56:04.184Z,6.80
2017-04-11T01:57:03.429Z,6.90
2017-04-11T01:58:01.875Z,6.90
2017-04-11T01:59:00.919Z,7.00
2017-04-11T02:00:03.012Z,6.80
2017-04-11T02:01:04.089Z,6.90
2017-04-11T02:02:03.248Z,6.90
2017-04-11T02:03:02.036Z,6.80
2017-04-11T02:04:00.768Z,6.80
2017-04-11T02:04:59.699Z,6.70
2017-04-11T02:05:58.848Z,6.70
2017-04-11T02:06:57.624Z,6.70
2017-04-11T02:07:57.631Z,6.70
2017-04-11T02:08:57.765Z,6.70
2017-04-11T02:09:56.598Z,6.70
2017-04-11T02:10:56.060Z,6.60
2017-04-11T02:11:56.969Z,6.70
2017-04-11T02:12:59.056Z,6.60
2017-04-11T02:14:01.140Z,6.70
2017-04-11T02:15:00.400Z,6.70
2017-04-11T02:16:02.895Z,6.70
2017-04-11T02:17:02.108Z,6.60
2017-04-11T02:18:01.384Z,6.60
2017-04-11T02:19:01.520Z,6.50
2017-04-11T02:20:02.825Z,6.50
2017-04-11T02:21:02.008Z,6.40
2017-04-11T02:22:01.163Z,6.40
2017-04-11T02:23:00.523Z,6.40
2017-04-11T02:23:59.872Z,6.30
2017-04-11T02:25:00.512Z,6.40
2017-04-11T02:26:04.855Z,6.40
2017-04-11T02:27:03.734Z,6.40
2017-04-11T02:28:05.033Z,6.40
2017-04-11T02:29:06.423Z,6.40
2017-04-11T02:30:05.367Z,6.40
2017-04-11T02:31:04.376Z,6.50
2017-04-11T02:32:07.330Z,6.40
2017-04-11T02:33:06.617Z,6.40
2017-04-11T02:34:05.482Z,6.40
2017-04-11T02:35:04.915Z,6.50
2017-04-11T02:36:05.659Z,6.50
2017-04-11T02:37:05.246Z,6.40
2017-04-11T02:38:06.097Z,6.40
2017-04-11T02:39:05.869Z,6.40
2017-04-11T02:40:05.005Z,6.40
2017-04-11T02:41:04.157Z,6.40
2017-04-11T02:42:05.038Z,6.40
2017-04-11T02:43:05.315Z,6.30
2017-04-11T02:44:04.543Z,6.30
2017-04-11T02:45:03.653Z,6.10
2017-04-11T02:46:02.887Z,6.10
2017-04-11T02:47:02.060Z,6.20
2017-04-11T02:48:01.233Z,6.10
2017-04-11T02:49:00.755Z,6.10
2017-04-11T02:49:59.225Z,6.10
2017-04-11T02:50:58.092Z,6.20
2017-04-11T02:51:56.991Z,6.30
2017-04-11T02:52:58.145Z,6.30
2017-04-11T02:53:57.291Z,6.30
2017-04-11T02:55:00.729Z,6.30
2017-04-11T02:56:00.943Z,6.30
2017-04-11T02:57:01.932Z,6.30
2017-04-11T02:58:01.208Z,6.30
2017-04-11T03:00:29.064Z,6.40
2017-04-11T03:01:28.372Z,6.40
2017-04-11T03:02:27.959Z,6.40
2017-04-11T03:03:27.491Z,6.40
2017-04-11T03:04:26.703Z,6.40
2017-04-11T03:05:25.506Z,6.40
2017-04-11T03:06:26.659Z,6.40
2017-04-11T03:07:28.940Z,6.60
2017-04-11T03:08:32.071Z,6.60
2017-04-11T03:09:30.919Z,6.60
2017-04-11T03:10:33.815Z,6.50
2017-04-11T03:11:33.122Z,6.50
2017-04-11T03:12:32.455Z,6.40
2017-04-11T03:13:30.851Z,6.40
2017-04-11T03:14:30.018Z,6.50
2017-04-11T03:15:28.884Z,6.50
2017-04-11T03:16:32.036Z,6.60
2017-04-11T03:17:31.577Z,6.70
2017-04-11T03:18:30.716Z,6.70
2017-04-11T03:19:29.712Z,6.70
2017-04-11T03:20:28.547Z,6.70
2017-04-11T03:21:27.329Z,6.70
2017-04-11T03:22:26.486Z,6.70
2017-04-11T03:23:28.449Z,6.70
2017-04-11T03:24:27.349Z,6.70
2017-04-11T03:25:28.402Z,6.70
2017-04-11T03:26:30.928Z,6.70
2017-04-11T03:27:33.457Z,6.70
2017-04-11T03:28:32.771Z,6.70
2017-04-11T03:29:31.582Z,6.70
2017-04-11T03:30:34.058Z,6.80
2017-04-11T03:31:33.750Z,6.80
2017-04-11T03:32:33.781Z,6.80
2017-04-11T03:33:32.968Z,6.90
2017-04-11T03:34:35.784Z,6.90
2017-04-11T03:35:34.553Z,6.90
2017-04-11T03:36:34.498Z,6.90
2017-04-11T03:37:33.271Z,6.90
2017-04-11T03:38:33.200Z,6.90
2017-04-11T03:39:32.452Z,7.00
2017-04-11T03:40:31.777Z,7.00
2017-04-11T03:41:30.957Z,7.00
2017-04-11T03:42:30.289Z,7.00
2017-04-11T03:43:29.330Z,7.00
2017-04-11T03:44:28.840Z,7.00
2017-04-11T03:45:27.843Z,7.00
2017-04-11T03:46:28.621Z,7.00
2017-04-11T03:47:27.821Z,7.00
2017-04-11T03:48:27.335Z,7.00
2017-04-11T03:49:26.487Z,7.10
2017-04-11T03:50:26.207Z,7.10
2017-04-11T03:51:24.991Z,7.10
2017-04-11T03:52:25.672Z,7.00
2017-04-11T03:53:24.714Z,7.10
2017-04-11T03:54:24.260Z,7.00
2017-04-11T03:55:23.264Z,7.10
2017-04-11T03:56:23.512Z,7.00
2017-04-11T03:57:22.677Z,7.00
2017-04-11T03:58:21.454Z,6.90
2017-04-11T03:59:23.350Z,6.90
2017-04-11T04:00:22.527Z,6.90
2017-04-11T04:01:24.907Z,6.90
2017-04-11T04:02:23.883Z,7.00
2017-04-11T04:03:22.671Z,7.00
2017-04-11T04:04:21.461Z,6.90
2017-04-11T04:05:20.561Z,7.00
2017-04-11T04:06:19.360Z,6.90
2017-04-11T04:07:18.175Z,6.90
2017-04-11T04:08:21.621Z,6.90
2017-04-11T04:09:20.795Z,6.90
2017-04-11T04:10:22.435Z,6.90
2017-04-11T04:11:21.708Z,6.90
2017-04-11T04:12:24.949Z,7.00
2017-04-11T04:13:27.682Z,7.00
2017-04-11T04:14:29.651Z,6.90
2017-04-11T04:15:28.551Z,6.90
2017-04-11T04:16:27.953Z,6.80
2017-04-11T04:17:28.243Z,6.70
2017-04-11T04:18:29.048Z,6.70
2017-04-11T04:19:27.809Z,6.70
2017-04-11T04:20:26.547Z,6.70
2017-04-11T04:21:25.443Z,6.70
2017-04-11T04:22:24.142Z,6.70
2017-04-11T04:23:23.220Z,6.70
2017-04-11T04:24:22.494Z,6.70
2017-04-11T04:25:21.299Z,6.80
2017-04-11T04:26:20.674Z,6.80
2017-04-11T04:27:22.427Z,6.80
2017-04-11T04:28:24.898Z,6.70
2017-04-11T04:29:24.346Z,6.70
2017-04-11T04:30:26.094Z,6.70
2017-04-11T04:31:28.302Z,6.70
2017-04-11T04:32:27.080Z,6.70
2017-04-11T04:33:30.206Z,6.70
2017-04-11T04:34:32.809Z,6.70
2017-04-11T04:35:31.696Z,6.80
2017-04-11T04:36:30.479Z,6.80
2017-04-11T04:37:29.295Z,6.80
2017-04-11T04:38:28.461Z,6.80
2017-04-11T04:39:28.516Z,6.80
2017-04-11T04:40:27.287Z,6.80
2017-04-11T04:41:26.072Z,6.80
2017-04-11T04:42:25.435Z,6.80
2017-04-11T04:43:24.789Z,6.80
2017-04-11T04:44:25.271Z,6.80
2017-04-11T04:45:25.293Z,6.80
2017-04-11T04:46:24.535Z,6.80
2017-04-11T04:47:23.403Z,6.70
2017-04-11T04:48:22.215Z,6.60
2017-04-11T04:49:21.163Z,6.70
2017-04-11T04:50:22.210Z,6.70
2017-04-11T04:51:21.299Z,6.70
2017-04-11T04:52:22.599Z,6.70
2017-04-11T04:53:21.436Z,6.70
2017-04-11T04:54:21.200Z,6.70
2017-04-11T04:55:20.571Z,6.70
2017-04-11T04:56:20.348Z,6.70
2017-04-11T04:57:19.159Z,6.80
2017-04-11T04:58:17.738Z,6.80
2017-04-11T04:59:17.284Z,6.80
2017-04-11T05:00:16.563Z,6.80
2017-04-11T05:01:15.487Z,6.80
2017-04-11T05:02:14.623Z,6.80
2017-04-11T05:03:13.454Z,6.90
2017-04-11T05:04:12.779Z,6.80
2017-04-11T05:05:11.969Z,6.80
2017-04-11T05:06:12.264Z,6.80
2017-04-11T05:07:11.467Z,6.80
2017-04-11T05:08:10.679Z,6.80
2017-04-11T05:09:12.088Z,6.80
2017-04-11T05:10:10.919Z,6.80
2017-04-11T05:11:09.799Z,6.80
2017-04-11T05:12:08.755Z,6.90
2017-04-11T05:13:10.559Z,6.90
2017-04-11T05:14:10.951Z,6.90
2017-04-11T05:15:12.297Z,7.00
2017-04-11T05:16:11.416Z,7.10
2017-04-11T05:17:10.624Z,7.00
2017-04-11T05:18:09.482Z,7.00
2017-04-11T05:19:10.077Z,7.20
2017-04-11T05:20:11.550Z,7.20
2017-04-11T05:21:10.777Z,7.40
2017-04-11T05:22:09.624Z,7.40
2017-04-11T05:23:10.742Z,7.40
2017-04-11T05:24:11.412Z,7.50
2017-04-11T05:25:12.738Z,7.50
2017-04-11T05:26:11.655Z,7.60
2017-04-11T05:27:10.443Z,7.60
2017-04-11T05:28:09.358Z,7.60
2017-04-11T05:29:08.206Z,7.60
2017-04-11T05:30:07.292Z,7.60
2017-04-11T05:31:06.414Z,7.60
2017-04-11T05:32:05.126Z,7.60
2017-04-11T05:33:04.555Z,7.60
2017-04-11T05:34:04.091Z,7.60
2017-04-11T05:35:06.604Z,7.60
2017-04-11T05:36:05.631Z,7.60
2017-04-11T05:37:07.907Z,7.60
2017-04-11T05:38:06.358Z,7.60
2017-04-11T05:39:11.563Z,7.70
2017-04-11T05:40:10.473Z,7.60
2017-04-11T05:41:14.307Z,7.50
2017-04-11T05:42:16.642Z,7.50
2017-04-11T05:43:16.256Z,7.40
2017-04-11T05:44:17.153Z,7.50
2017-04-11T05:45:18.439Z,7.40
2017-04-11T05:46:20.635Z,7.40
2017-04-11T05:47:23.393Z,7.40
2017-04-11T05:48:22.207Z,7.30
2017-04-11T05:49:21.148Z,7.40
2017-04-11T05:50:20.895Z,7.40
2017-04-11T05:51:22.069Z,7.50
2017-04-11T05:52:24.139Z,7.40
2017-04-11T05:53:22.877Z,7.40
2017-04-11T05:54:21.807Z,7.40
2017-04-11T05:55:21.129Z,7.40
2017-04-11T05:56:20.602Z,7.40
2017-04-11T05:57:22.000Z,7.40
2017-04-11T05:58:21.602Z,7.50
2017-04-11T05:59:20.139Z,7.50
2017-04-11T06:00:19.605Z,7.40
2017-04-11T06:01:18.687Z,7.40
2017-04-11T06:02:17.662Z,7.40
2017-04-11T06:03:17.041Z,7.40
2017-04-11T06:04:17.275Z,7.40
2017-04-11T06:05:18.539Z,7.50
2017-04-11T06:06:20.630Z,7.50
2017-04-11T06:07:19.408Z,7.50
2017-04-11T06:08:18.338Z,7.50
2017-04-11T06:09:20.968Z,7.60
2017-04-11T06:10:23.421Z,7.80
2017-04-11T06:11:22.284Z,7.90
2017-04-11T06:12:21.067Z,7.90
2017-04-11T06:13:24.519Z,8.00
2017-04-11T06:14:23.728Z,8.00
2017-04-11T06:15:26.365Z,8.00
2017-04-11T06:16:25.283Z,7.90
2017-04-11T06:17:24.614Z,8.00
2017-04-11T06:18:23.659Z,8.10
2017-04-11T06:19:23.050Z,8.00
2017-04-11T06:20:22.658Z,7.90
2017-04-11T06:21:22.351Z,7.90
2017-04-11T06:22:22.871Z,7.80
2017-04-11T06:23:22.283Z,7.80
2017-04-11T06:24:21.111Z,7.80
2017-04-11T06:25:20.599Z,7.70
2017-04-11T06:26:19.523Z,7.80
2017-04-11T06:27:18.811Z,8.00
2017-04-11T06:28:21.000Z,8.00
2017-04-11T06:29:19.792Z,7.90
2017-04-11T06:30:19.144Z,8.00
2017-04-11T06:31:22.209Z,8.10
2017-04-11T06:32:23.623Z,7.90
2017-04-11T06:33:22.556Z,7.90
2017-04-11T06:34:25.059Z,8.00
2017-04-11T06:35:23.780Z,8.00
2017-04-11T06:36:22.863Z,8.00
2017-04-11T06:37:21.630Z,8.00
2017-04-11T06:38:22.365Z,7.90
2017-04-11T06:39:23.506Z,8.00
2017-04-11T06:40:26.405Z,7.90
2017-04-11T06:41:25.220Z,7.90
2017-04-11T06:42:24.663Z,7.90
2017-04-11T06:43:23.728Z,7.90
2017-04-11T06:44:22.682Z,7.90
2017-04-11T06:45:21.701Z,8.00
2017-04-11T06:46:21.489Z,8.10
2017-04-11T06:47:22.223Z,8.20
2017-04-11T06:48:21.162Z,8.30
2017-04-11T06:49:23.947Z,8.30
2017-04-11T06:50:26.020Z,8.30
2017-04-11T06:51:25.845Z,8.30
2017-04-11T06:52:27.768Z,8.20
2017-04-11T06:53:26.726Z,8.20
2017-04-11T06:54:28.425Z,8.20
2017-04-11T06:55:30.567Z,8.20
2017-04-11T06:56:29.878Z,8.30
2017-04-11T06:57:29.679Z,8.30
2017-04-11T06:58:29.572Z,8.30
2017-04-11T06:59:31.564Z,8.20
2017-04-11T07:00:33.534Z,8.20
2017-04-11T07:01:36.940Z,8.10
2017-04-11T07:02:41.120Z,8.10
2017-04-11T07:03:46.088Z,8.00
2017-04-11T07:04:45.863Z,8.00
2017-04-11T07:05:44.835Z,8.10
2017-04-11T07:06:45.153Z,8.10
2017-04-11T07:07:45.100Z,8.10
2017-04-11T07:08:44.219Z,8.00
2017-04-11T07:09:46.009Z,8.10
2017-04-11T07:10:44.808Z,8.20
2017-04-11T07:11:46.607Z,8.30
2017-04-11T07:12:49.688Z,8.40
2017-04-11T07:13:53.072Z,8.40
2017-04-11T07:14:51.984Z,8.40
2017-04-11T07:15:51.099Z,8.40
2017-04-11T07:16:50.825Z,8.40
2017-04-11T07:17:51.421Z,8.50
2017-04-11T07:18:50.860Z,8.50
2017-04-11T07:19:49.740Z,8.60
2017-04-11T07:20:49.054Z,8.60
2017-04-11T07:21:48.831Z,8.60
2017-04-11T07:22:49.033Z,8.60
2017-04-11T07:23:48.698Z,8.70
2017-04-11T07:24:49.180Z,8.70
2017-04-11T07:25:49.701Z,8.70
2017-04-11T07:26:48.527Z,8.80
2017-04-11T07:27:49.319Z,9.00
2017-04-11T07:28:49.733Z,9.00
2017-04-11T07:29:49.934Z,8.90
2017-04-11T07:30:49.977Z,9.00
2017-04-11T07:31:49.449Z,9.00
2017-04-11T07:32:49.638Z,9.00
2017-04-11T07:33:51.493Z,9.10
2017-04-11T07:34:50.636Z,9.20
2017-04-11T07:35:53.572Z,9.10
2017-04-11T07:36:55.337Z,9.00
2017-04-11T07:37:54.864Z,9.10
2017-04-11T07:38:54.827Z,9.20
2017-04-11T07:39:56.619Z,9.20
2017-04-11T07:40:56.635Z,9.10
2017-04-11T07:42:01.131Z,9.10
2017-04-11T07:43:03.812Z,9.30
2017-04-11T07:44:02.755Z,9.40
2017-04-11T07:45:01.655Z,9.50
2017-04-11T07:46:01.850Z,9.50
2017-04-11T07:47:00.611Z,9.50
2017-04-11T07:48:01.690Z,9.60
2017-04-11T07:49:00.863Z,9.70
2017-04-11T07:49:59.691Z,9.80
2017-04-11T07:51:01.743Z,9.80
2017-04-11T07:52:00.833Z,9.90
2017-04-11T07:53:04.137Z,10.00
2017-04-11T07:54:07.006Z,10.00
2017-04-11T07:55:08.815Z,10.00
2017-04-11T07:56:07.675Z,10.10
2017-04-11T07:57:10.686Z,10.10
2017-04-11T07:58:09.737Z,10.10
2017-04-11T07:59:09.394Z,10.00
2017-04-11T08:00:09.067Z,10.00
2017-04-11T08:01:08.616Z,10.20
2017-04-11T08:02:10.284Z,10.20
2017-04-11T08:03:13.153Z,10.20
2017-04-11T08:04:12.436Z,10.30
2017-04-11T08:05:14.988Z,10.40
2017-04-11T08:06:13.819Z,10.50
2017-04-11T08:07:13.035Z,10.50
2017-04-11T08:08:12.135Z,10.50
2017-04-11T08:09:14.405Z,10.60
2017-04-11T08:10:16.371Z,10.50
2017-04-11T08:11:17.614Z,10.60
2017-04-11T08:12:16.552Z,10.60
2017-04-11T08:13:19.167Z,10.60
2017-04-11T08:14:19.776Z,10.60
2017-04-11T08:15:23.042Z,10.60
2017-04-11T08:16:22.054Z,10.60
2017-04-11T08:17:22.454Z,10.60
2017-04-11T08:18:23.499Z,10.70
2017-04-11T08:19:24.782Z,10.70
2017-04-11T08:20:27.769Z,10.90
2017-04-11T08:21:27.020Z,10.90
2017-04-11T08:22:28.485Z,10.70
2017-04-11T08:23:31.673Z,10.60
2017-04-11T08:24:34.860Z,10.40
2017-04-11T08:25:33.967Z,10.40
2017-04-11T08:26:36.404Z,10.40
2017-04-11T08:27:35.245Z,10.50
2017-04-11T08:28:34.461Z,10.60
2017-04-11T08:29:35.100Z,10.80
2017-04-11T08:31:34.734Z,10.90
2017-04-11T08:32:36.358Z,10.90
2017-04-11T08:33:35.194Z,10.80
2017-04-11T08:34:34.264Z,10.60
2017-04-11T08:35:35.740Z,10.60
2017-04-11T08:36:35.173Z,10.60
2017-04-11T08:37:34.020Z,10.70
2017-04-11T08:38:35.355Z,10.70
2017-04-11T08:39:34.388Z,10.70
2017-04-11T08:40:37.111Z,10.70
2017-04-11T08:41:37.481Z,10.70
2017-04-11T08:42:36.352Z,10.80
2017-04-11T08:43:35.753Z,10.80
2017-04-11T08:44:41.002Z,11.00
2017-04-11T08:45:45.256Z,11.10
2017-04-11T08:46:44.313Z,11.20
2017-04-11T08:47:47.202Z,11.10
2017-04-11T08:48:49.134Z,11.10
2017-04-11T08:49:48.640Z,11.20
2017-04-11T08:50:49.407Z,11.20
2017-04-11T08:51:54.343Z,11.00
2017-04-11T08:52:54.768Z,11.00
2017-04-11T08:53:57.066Z,11.00
2017-04-11T08:55:00.393Z,10.80
2017-04-11T08:56:00.197Z,10.80
2017-04-11T08:56:59.015Z,10.90
2017-04-11T08:57:58.113Z,10.70
2017-04-11T08:58:57.592Z,10.50
2017-04-11T08:59:56.892Z,10.60
2017-04-11T09:00:56.160Z,10.70
2017-04-11T09:01:55.355Z,10.70
2017-04-11T09:02:54.191Z,10.80
2017-04-11T09:03:53.392Z,10.90
2017-04-11T09:04:52.292Z,10.90
2017-04-11T09:05:54.408Z,11.00
2017-04-11T09:06:55.220Z,11.10
2017-04-11T09:07:56.259Z,11.20
2017-04-11T09:08:57.183Z,11.20
2017-04-11T09:09:56.011Z,11.20
2017-04-11T09:10:54.920Z,11.20
2017-04-11T09:11:55.903Z,11.20
2017-04-11T09:12:55.697Z,11.20
2017-04-11T09:13:55.195Z,11.20
2017-04-11T09:14:54.578Z,11.10
2017-04-11T09:15:55.155Z,11.10
2017-04-11T09:16:54.965Z,11.10
2017-04-11T09:17:55.706Z,11.10
2017-04-11T09:18:57.985Z,11.10
2017-04-11T09:19:59.487Z,11.00
2017-04-11T09:21:01.099Z,11.10
2017-04-11T09:22:00.552Z,11.10
2017-04-11T09:23:00.167Z,10.90
2017-04-11T09:23:59.224Z,11.00
2017-04-11T09:25:02.224Z,11.10
2017-04-11T09:26:02.518Z,11.00
2017-04-11T09:27:01.493Z,10.80
2017-04-11T09:28:04.187Z,10.90
2017-04-11T09:29:05.530Z,11.00
2017-04-11T09:30:07.788Z,11.00
2017-04-11T09:31:07.015Z,11.10
2017-04-11T09:32:09.449Z,11.00
2017-04-11T09:33:09.170Z,11.00
2017-04-11T09:34:08.872Z,11.00
2017-04-11T09:35:09.059Z,11.10
2017-04-11T09:36:07.872Z,11.10
2017-04-11T09:37:09.630Z,11.10
2017-04-11T09:38:12.651Z,11.10
2017-04-11T09:39:11.580Z,11.10
2017-04-11T09:40:11.579Z,11.20
2017-04-11T09:41:10.369Z,11.20
2017-04-11T09:42:11.918Z,11.30
2017-04-11T09:43:13.728Z,11.20
2017-04-11T09:44:12.676Z,11.20
2017-04-11T09:45:15.268Z,11.20
2017-04-11T09:46:14.398Z,11.10
2017-04-11T09:47:16.823Z,11.20
2017-04-11T09:48:18.425Z,11.30
2017-04-11T09:49:21.684Z,11.30
2017-04-11T09:50:24.764Z,11.30
2017-04-11T09:51:27.929Z,11.20
2017-04-11T09:52:26.743Z,11.10
2017-04-11T09:53:26.126Z,11.10
2017-04-11T09:54:26.012Z,11.10
2017-04-11T09:55:25.875Z,11.20
2017-04-11T09:56:24.911Z,11.30
2017-04-11T09:57:25.149Z,11.30
2017-04-11T09:58:26.041Z,11.30
2017-04-11T09:59:25.149Z,11.30
2017-04-11T10:00:25.220Z,11.30
2017-04-11T10:01:29.030Z,11.40
2017-04-11T10:02:28.535Z,11.50
2017-04-11T10:03:32.590Z,11.40
2017-04-11T10:04:33.613Z,11.50
2017-04-11T10:05:33.185Z,11.40
2017-04-11T10:06:35.876Z,11.40
2017-04-11T10:07:36.041Z,11.40
2017-04-11T10:08:39.288Z,11.40
2017-04-11T10:09:38.787Z,11.40
2017-04-11T10:10:37.697Z,11.40
2017-04-11T10:11:36.923Z,11.40
2017-04-11T10:12:36.639Z,11.40
2017-04-11T10:13:35.490Z,11.30
2017-04-11T10:14:34.460Z,11.30
2017-04-11T10:15:34.730Z,11.40
2017-04-11T10:16:33.757Z,11.60
2017-04-11T10:17:33.023Z,11.70
2017-04-11T10:18:32.520Z,11.70
2017-04-11T10:19:32.249Z,11.60
2017-04-11T10:20:34.601Z,11.70
2017-04-11T10:21:33.551Z,11.60
2017-04-11T10:22:36.569Z,11.50
2017-04-11T10:23:38.272Z,11.60
2017-04-11T10:24:38.406Z,11.80
2017-04-11T10:25:41.211Z,11.90
2017-04-11T10:26:40.381Z,12.10
2017-04-11T10:27:39.476Z,12.30
2017-04-11T10:28:42.446Z,12.40
2017-04-11T10:29:41.265Z,12.50
2017-04-11T10:30:44.416Z,12.60
2017-04-11T10:31:43.643Z,12.60
2017-04-11T10:32:42.592Z,12.60
2017-04-11T10:33:42.879Z,12.50
2017-04-11T10:34:41.844Z,12.50
2017-04-11T10:35:42.845Z,12.40
2017-04-11T10:36:41.943Z,12.40
2017-04-11T10:37:43.130Z,12.40
2017-04-11T10:38:42.195Z,12.60
2017-04-11T10:39:41.183Z,12.70
2017-04-11T10:40:40.694Z,12.70
2017-04-11T10:41:39.490Z,12.80
2017-04-11T10:42:38.724Z,12.80
2017-04-11T10:43:37.519Z,12.80
2017-04-11T10:44:36.451Z,12.90
2017-04-11T10:45:35.821Z,13.10
2017-04-11T10:46:34.833Z,13.20
2017-04-11T10:47:33.762Z,13.30
2017-04-11T10:48:33.422Z,13.30
2017-04-11T10:49:32.412Z,13.20
2017-04-11T10:50:35.463Z,13.20
2017-04-11T10:51:34.283Z,13.30
2017-04-11T10:52:33.301Z,13.10
2017-04-11T10:53:32.632Z,13.10
2017-04-11T10:54:31.900Z,13.10
2017-04-11T10:55:31.806Z,13.10
2017-04-11T10:56:30.976Z,13.00
2017-04-11T10:57:30.816Z,12.90
2017-04-11T10:58:29.722Z,12.70
2017-04-11T10:59:29.084Z,12.70
2017-04-11T11:00:28.643Z,12.80
2017-04-11T11:01:27.858Z,13.00
2017-04-11T11:02:27.086Z,13.00
2017-04-11T11:03:27.118Z,13.10
2017-04-11T11:04:26.189Z,13.10
2017-04-11T11:05:27.423Z,13.10
2017-04-11T11:06:26.583Z,13.10
2017-04-11T11:07:25.411Z,13.10
2017-04-11T11:08:26.827Z,13.20
2017-04-11T11:09:25.741Z,13.30
2017-04-11T11:10:28.353Z,13.40
2017-04-11T11:11:27.144Z,13.40
2017-04-11T11:12:25.978Z,13.50
2017-04-11T11:13:27.483Z,13.50
2017-04-11T11:14:26.044Z,13.50
2017-04-11T11:15:25.677Z,13.50
2017-04-11T11:16:25.824Z,13.40
2017-04-11T11:17:25.260Z,13.30
2017-04-11T11:18:26.366Z,13.30
2017-04-11T11:19:25.171Z,13.20
2017-04-11T11:20:24.203Z,13.30
2017-04-11T11:21:25.378Z,13.20
2017-04-11T11:22:26.959Z,13.20
2017-04-11T11:23:28.808Z,13.40
2017-04-11T11:24:28.586Z,13.50
2017-04-11T11:25:27.387Z,13.60
2017-04-11T11:26:26.939Z,13.60
2017-04-11T11:27:25.772Z,13.60
2017-04-11T11:28:27.255Z,13.70
2017-04-11T11:29:29.834Z,13.70
2017-04-11T11:30:29.246Z,13.70
2017-04-11T11:31:31.736Z,13.60
2017-04-11T11:32:35.018Z,13.60
2017-04-11T11:33:34.212Z,13.60
2017-04-11T11:34:36.049Z,13.50
2017-04-11T11:35:37.860Z,13.40
2017-04-11T11:36:36.730Z,13.30
2017-04-11T11:37:35.217Z,13.30
2017-04-11T11:38:34.680Z,13.40
2017-04-11T11:39:33.511Z,13.50
2017-04-11T11:40:33.018Z,13.50
2017-04-11T11:41:32.259Z,13.60
2017-04-11T11:42:31.139Z,13.70
2017-04-11T11:43:31.288Z,13.70
2017-04-11T11:44:31.547Z,13.70
2017-04-11T11:45:32.556Z,13.60
2017-04-11T11:46:35.419Z,13.70
2017-04-11T11:47:34.801Z,13.80
2017-04-11T11:48:33.692Z,13.80
2017-04-11T11:49:33.191Z,13.80
2017-04-11T11:50:34.981Z,13.80
2017-04-11T11:51:37.507Z,13.80
2017-04-11T11:52:39.139Z,13.70
2017-04-11T11:53:38.383Z,13.60
2017-04-11T11:54:41.873Z,13.70
2017-04-11T11:55:44.464Z,13.50
2017-04-11T11:56:46.509Z,13.50
2017-04-11T11:57:47.797Z,13.60
2017-04-11T11:58:49.657Z,13.60
2017-04-11T11:59:51.619Z,13.60
2017-04-11T12:00:52.356Z,13.50
2017-04-11T12:01:53.961Z,13.60
2017-04-11T12:02:55.749Z,13.60
2017-04-11T12:03:54.535Z,13.60
2017-04-11T12:04:55.630Z,13.70
2017-04-11T12:05:54.572Z,13.60
2017-04-11T12:06:56.494Z,13.60
2017-04-11T12:07:58.876Z,13.60
2017-04-11T12:09:00.730Z,13.60
2017-04-11T12:09:59.985Z,13.70
2017-04-11T12:11:00.675Z,13.70
2017-04-11T12:11:59.939Z,13.70
2017-04-11T12:12:58.785Z,13.70
2017-04-11T12:13:59.241Z,13.80
2017-04-11T12:14:59.373Z,13.90
2017-04-11T12:16:01.492Z,13.90
2017-04-11T12:17:01.661Z,13.90
2017-04-11T12:18:00.459Z,14.00
2017-04-11T12:19:01.795Z,14.00
2017-04-11T12:20:02.111Z,14.10
2017-04-11T12:21:01.697Z,14.10
2017-04-11T12:22:00.653Z,14.00
2017-04-11T12:23:03.505Z,14.00
2017-04-11T12:24:06.314Z,14.00
2017-04-11T12:25:05.463Z,14.00
2017-04-11T12:26:08.706Z,14.00
2017-04-11T12:27:07.581Z,13.90
2017-04-11T12:28:09.330Z,13.90
2017-04-11T12:29:08.340Z,13.90
2017-04-11T12:30:09.583Z,13.80
2017-04-11T12:31:13.036Z,13.70
2017-04-11T12:32:13.594Z,13.90
2017-04-11T12:33:12.935Z,14.00
2017-04-11T12:34:12.220Z,14.00
2017-04-11T12:35:11.987Z,13.90
2017-04-11T12:36:10.796Z,14.00
2017-04-11T12:37:10.290Z,14.10
2017-04-11T12:38:09.166Z,14.20
2017-04-11T12:39:08.378Z,14.20
2017-04-11T12:40:07.507Z,14.30
2017-04-11T12:41:06.794Z,14.30
2017-04-11T12:42:05.658Z,14.30
2017-04-11T12:43:04.848Z,14.30
2017-04-11T12:44:04.152Z,14.30
2017-04-11T12:45:03.027Z,14.40
2017-04-11T12:46:01.915Z,14.30
2017-04-11T12:47:02.515Z,14.30
2017-04-11T12:48:01.557Z,14.40
2017-04-11T12:49:04.142Z,14.50
2017-04-11T12:50:06.343Z,14.40
2017-04-11T12:51:07.863Z,14.40
2017-04-11T12:52:07.322Z,14.40
2017-04-11T12:53:08.372Z,14.40
2017-04-11T12:54:07.736Z,14.40
2017-04-11T12:55:09.309Z,14.40
2017-04-11T12:56:08.551Z,14.40
2017-04-11T12:57:09.448Z,14.50
2017-04-11T12:58:12.334Z,14.20
2017-04-11T12:59:11.861Z,14.20
2017-04-11T13:00:10.668Z,14.10
2017-04-11T13:01:12.331Z,14.20
2017-04-11T13:02:15.456Z,14.30
2017-04-11T13:03:18.700Z,14.20
2017-04-11T13:04:24.902Z,14.10
2017-04-11T13:05:27.360Z,14.00
2017-04-11T13:06:26.111Z,14.10
2017-04-11T13:07:25.218Z,14.00
2017-04-11T13:08:27.475Z,13.90
2017-04-11T13:09:26.666Z,13.90
2017-04-11T13:10:25.636Z,13.80
2017-04-11T13:11:25.901Z,13.80
2017-04-11T13:12:25.280Z,13.80
2017-04-11T13:13:25.249Z,14.10